sensor_id;sensor_type;location;lat;lon;timestamp;pressure;altitude;pressure_sealevel;temperature;humidity
80747;BME280;75521;50.218;14.322;2024-01-30T00:02:12;100872.19;;;-1.87;93.07
80747;BME280;75521;50.218;14.322;2024-01-30T00:04:38;100888.13;;;-1.77;94.50
80747;BME280;75521;50.218;14.322;2024-01-30T00:07:03;100877.88;;;-1.82;93.83
80747;BME280;75521;50.218;14.322;2024-01-30T00:09:29;100880.91;;;-1.85;92.87
80747;BME280;75521;50.218;14.322;2024-01-30T00:11:54;100873.34;;;-1.81;93.24
80747;BME280;75521;50.218;14.322;2024-01-30T00:14:19;100878.84;;;-1.99;93.35
80747;BME280;75521;50.218;14.322;2024-01-30T00:16:45;100883.06;;;-1.88;94.03
80747;BME280;75521;50.218;14.322;2024-01-30T00:19:11;100873.31;;;-1.89;93.29
80747;BME280;75521;50.218;14.322;2024-01-30T00:21:37;100877.81;;;-2.06;95.21
80747;BME280;75521;50.218;14.322;2024-01-30T00:24:02;100880.34;;;-1.97;95.34
80747;BME280;75521;50.218;14.322;2024-01-30T00:26:28;100885.56;;;-1.95;93.75
80747;BME280;75521;50.218;14.322;2024-01-30T00:28:53;100868.47;;;-1.94;93.14
80747;BME280;75521;50.218;14.322;2024-01-30T00:31:18;100862.22;;;-2.03;92.98
80747;BME280;75521;50.218;14.322;2024-01-30T00:33:44;100874.66;;;-1.94;92.64
80747;BME280;75521;50.218;14.322;2024-01-30T00:36:09;100870.97;;;-1.92;93.38
80747;BME280;75521;50.218;14.322;2024-01-30T00:38:35;100879.16;;;-2.02;93.80
80747;BME280;75521;50.218;14.322;2024-01-30T00:41:01;100880.81;;;-2.01;94.29
80747;BME280;75521;50.218;14.322;2024-01-30T00:43:30;100875.16;;;-1.98;94.57
80747;BME280;75521;50.218;14.322;2024-01-30T00:45:56;100872.34;;;-1.88;95.06
80747;BME280;75521;50.218;14.322;2024-01-30T00:48:22;100871.16;;;-1.86;95.33
80747;BME280;75521;50.218;14.322;2024-01-30T00:50:47;100859.41;;;-1.93;94.16
80747;BME280;75521;50.218;14.322;2024-01-30T00:53:13;100854.38;;;-1.88;93.72
80747;BME280;75521;50.218;14.322;2024-01-30T00:55:38;100852.03;;;-1.91;91.92
80747;BME280;75521;50.218;14.322;2024-01-30T00:58:04;100848.66;;;-1.93;92.19
80747;BME280;75521;50.218;14.322;2024-01-30T01:00:29;100847.81;;;-1.94;92.17
80747;BME280;75521;50.218;14.322;2024-01-30T01:02:56;100856.75;;;-1.85;93.32
80747;BME280;75521;50.218;14.322;2024-01-30T01:05:21;100862.06;;;-1.93;91.60
80747;BME280;75521;50.218;14.322;2024-01-30T01:07:46;100832.84;;;-2.04;92.33
80747;BME280;75521;50.218;14.322;2024-01-30T01:10:16;100828.53;;;-1.97;93.60
80747;BME280;75521;50.218;14.322;2024-01-30T01:12:42;100835.28;;;-1.85;93.32
80747;BME280;75521;50.218;14.322;2024-01-30T01:15:08;100853.91;;;-1.83;93.52
80747;BME280;75521;50.218;14.322;2024-01-30T01:17:37;100863.81;;;-1.84;92.57
80747;BME280;75521;50.218;14.322;2024-01-30T01:20:03;100863.78;;;-1.92;92.01
80747;BME280;75521;50.218;14.322;2024-01-30T01:22:30;100850.66;;;-2.03;92.08
80747;BME280;75521;50.218;14.322;2024-01-30T01:24:56;100863.41;;;-1.97;92.77
80747;BME280;75521;50.218;14.322;2024-01-30T01:27:21;100829.81;;;-2.17;93.28
80747;BME280;75521;50.218;14.322;2024-01-30T01:29:46;100855.19;;;-1.96;93.20
80747;BME280;75521;50.218;14.322;2024-01-30T01:32:12;100847.97;;;-2.03;91.21
80747;BME280;75521;50.218;14.322;2024-01-30T01:34:37;100846.28;;;-2.04;91.84
80747;BME280;75521;50.218;14.322;2024-01-30T01:37:03;100854.34;;;-1.96;90.57
80747;BME280;75521;50.218;14.322;2024-01-30T01:39:28;100872.19;;;-1.87;89.88
80747;BME280;75521;50.218;14.322;2024-01-30T01:41:53;100842.09;;;-2.07;90.72
80747;BME280;75521;50.218;14.322;2024-01-30T01:44:19;100844.09;;;-2.01;92.01
80747;BME280;75521;50.218;14.322;2024-01-30T01:46:44;100843.44;;;-2.03;93.04
80747;BME280;75521;50.218;14.322;2024-01-30T01:49:10;100849.00;;;-1.96;92.35
80747;BME280;75521;50.218;14.322;2024-01-30T01:51:36;100848.19;;;-1.88;92.10
80747;BME280;75521;50.218;14.322;2024-01-30T01:54:04;100865.31;;;-1.81;91.71
80747;BME280;75521;50.218;14.322;2024-01-30T01:56:31;100866.31;;;-1.82;91.33
80747;BME280;75521;50.218;14.322;2024-01-30T01:59:00;100860.41;;;-1.86;91.57
80747;BME280;75521;50.218;14.322;2024-01-30T02:01:27;100840.44;;;-2.00;90.83
80747;BME280;75521;50.218;14.322;2024-01-30T02:03:53;100834.69;;;-2.05;91.64
80747;BME280;75521;50.218;14.322;2024-01-30T02:06:18;100856.19;;;-1.97;90.66
80747;BME280;75521;50.218;14.322;2024-01-30T02:08:44;100845.97;;;-1.93;90.19
80747;BME280;75521;50.218;14.322;2024-01-30T02:11:10;100847.63;;;-2.00;91.04
80747;BME280;75521;50.218;14.322;2024-01-30T02:13:36;100839.53;;;-2.08;91.04
80747;BME280;75521;50.218;14.322;2024-01-30T02:16:02;100832.00;;;-2.05;91.81
80747;BME280;75521;50.218;14.322;2024-01-30T02:18:27;100850.34;;;-1.92;92.70
80747;BME280;75521;50.218;14.322;2024-01-30T02:20:54;100839.91;;;-2.03;92.80
80747;BME280;75521;50.218;14.322;2024-01-30T02:23:23;100843.63;;;-1.96;92.73
80747;BME280;75521;50.218;14.322;2024-01-30T02:25:49;100837.59;;;-1.90;92.18
80747;BME280;75521;50.218;14.322;2024-01-30T02:28:15;100840.47;;;-1.91;92.40
80747;BME280;75521;50.218;14.322;2024-01-30T02:30:42;100839.97;;;-1.87;90.60
80747;BME280;75521;50.218;14.322;2024-01-30T02:33:08;100835.94;;;-1.91;91.13
80747;BME280;75521;50.218;14.322;2024-01-30T02:35:33;100841.94;;;-1.97;90.20
80747;BME280;75521;50.218;14.322;2024-01-30T02:37:59;100839.22;;;-2.05;90.51
80747;BME280;75521;50.218;14.322;2024-01-30T02:40:25;100820.44;;;-2.13;91.68
80747;BME280;75521;50.218;14.322;2024-01-30T02:42:50;100840.06;;;-2.05;91.51
80747;BME280;75521;50.218;14.322;2024-01-30T02:45:16;100839.38;;;-2.15;92.25
80747;BME280;75521;50.218;14.322;2024-01-30T02:47:41;100838.56;;;-2.07;91.48
80747;BME280;75521;50.218;14.322;2024-01-30T02:50:07;100848.06;;;-2.13;92.75
80747;BME280;75521;50.218;14.322;2024-01-30T02:52:33;100833.19;;;-2.07;93.22
80747;BME280;75521;50.218;14.322;2024-01-30T02:54:58;100836.88;;;-2.08;93.25
80747;BME280;75521;50.218;14.322;2024-01-30T02:57:24;100822.78;;;-2.10;93.43
80747;BME280;75521;50.218;14.322;2024-01-30T02:59:49;100838.69;;;-2.09;93.06
80747;BME280;75521;50.218;14.322;2024-01-30T03:02:14;100830.69;;;-2.01;92.81
80747;BME280;75521;50.218;14.322;2024-01-30T03:04:43;100828.69;;;-1.99;92.71
80747;BME280;75521;50.218;14.322;2024-01-30T03:07:08;100833.22;;;-1.99;92.55
80747;BME280;75521;50.218;14.322;2024-01-30T03:09:34;100817.94;;;-2.07;91.59
80747;BME280;75521;50.218;14.322;2024-01-30T03:11:59;100819.78;;;-2.07;92.48
80747;BME280;75521;50.218;14.322;2024-01-30T03:14:25;100825.19;;;-1.99;92.28
80747;BME280;75521;50.218;14.322;2024-01-30T03:16:50;100813.44;;;-1.98;93.10
80747;BME280;75521;50.218;14.322;2024-01-30T03:19:15;100824.16;;;-2.06;90.42
80747;BME280;75521;50.218;14.322;2024-01-30T03:21:41;100829.50;;;-2.06;90.85
80747;BME280;75521;50.218;14.322;2024-01-30T03:24:06;100824.81;;;-2.04;92.23
80747;BME280;75521;50.218;14.322;2024-01-30T03:26:31;100804.34;;;-2.13;93.66
80747;BME280;75521;50.218;14.322;2024-01-30T03:28:57;100809.22;;;-2.01;93.59
80747;BME280;75521;50.218;14.322;2024-01-30T03:31:22;100788.06;;;-2.12;93.03
80747;BME280;75521;50.218;14.322;2024-01-30T03:33:47;100797.88;;;-1.95;93.23
80747;BME280;75521;50.218;14.322;2024-01-30T03:36:15;100806.75;;;-1.86;93.78
80747;BME280;75521;50.218;14.322;2024-01-30T03:38:40;100792.50;;;-1.95;93.39
80747;BME280;75521;50.218;14.322;2024-01-30T03:41:08;100804.41;;;-1.89;92.81
80747;BME280;75521;50.218;14.322;2024-01-30T03:43:34;100782.06;;;-1.98;92.25
80747;BME280;75521;50.218;14.322;2024-01-30T03:46:01;100797.88;;;-1.95;91.18
80747;BME280;75521;50.218;14.322;2024-01-30T03:48:26;100804.22;;;-1.96;91.62
80747;BME280;75521;50.218;14.322;2024-01-30T03:50:51;100797.13;;;-2.05;91.10
80747;BME280;75521;50.218;14.322;2024-01-30T03:53:17;100782.88;;;-2.13;91.78
80747;BME280;75521;50.218;14.322;2024-01-30T03:55:42;100811.25;;;-2.03;92.02
80747;BME280;75521;50.218;14.322;2024-01-30T03:58:07;100788.75;;;-2.10;92.99
80747;BME280;75521;50.218;14.322;2024-01-30T04:00:33;100796.66;;;-2.00;93.88
80747;BME280;75521;50.218;14.322;2024-01-30T04:02:58;100795.34;;;-1.88;93.13
80747;BME280;75521;50.218;14.322;2024-01-30T04:05:23;100807.78;;;-1.87;93.10
80747;BME280;75521;50.218;14.322;2024-01-30T04:07:49;100808.94;;;-1.81;93.15
80747;BME280;75521;50.218;14.322;2024-01-30T04:10:14;100805.75;;;-1.85;92.74
80747;BME280;75521;50.218;14.322;2024-01-30T04:12:39;100782.09;;;-1.89;93.03
80747;BME280;75521;50.218;14.322;2024-01-30T04:15:05;100793.66;;;-1.89;93.12
80747;BME280;75521;50.218;14.322;2024-01-30T04:17:30;100804.25;;;-1.87;92.88
80747;BME280;75521;50.218;14.322;2024-01-30T04:19:55;100769.63;;;-2.15;92.66
80747;BME280;75521;50.218;14.322;2024-01-30T04:22:21;100790.13;;;-2.06;92.58
80747;BME280;75521;50.218;14.322;2024-01-30T04:24:47;100809.03;;;-2.07;92.75
80747;BME280;75521;50.218;14.322;2024-01-30T04:27:12;100804.72;;;-2.00;92.88
80747;BME280;75521;50.218;14.322;2024-01-30T04:29:37;100806.22;;;-2.06;93.45
80747;BME280;75521;50.218;14.322;2024-01-30T04:32:03;100797.84;;;-2.03;94.03
80747;BME280;75521;50.218;14.322;2024-01-30T04:34:29;100799.81;;;-2.05;93.47
80747;BME280;75521;50.218;14.322;2024-01-30T04:36:54;100800.34;;;-2.01;92.34
80747;BME280;75521;50.218;14.322;2024-01-30T04:39:19;100803.38;;;-1.96;92.37
80747;BME280;75521;50.218;14.322;2024-01-30T04:41:45;100810.75;;;-1.98;91.05
80747;BME280;75521;50.218;14.322;2024-01-30T04:44:10;100791.94;;;-2.14;91.00
80747;BME280;75521;50.218;14.322;2024-01-30T04:46:35;100821.81;;;-1.93;89.97
80747;BME280;75521;50.218;14.322;2024-01-30T04:49:01;100817.28;;;-2.01;90.58
80747;BME280;75521;50.218;14.322;2024-01-30T04:51:26;100795.59;;;-2.15;90.93
80747;BME280;75521;50.218;14.322;2024-01-30T04:53:52;100790.53;;;-2.26;91.29
80747;BME280;75521;50.218;14.322;2024-01-30T04:56:17;100816.56;;;-2.11;91.09
80747;BME280;75521;50.218;14.322;2024-01-30T04:58:43;100815.22;;;-2.15;90.58
80747;BME280;75521;50.218;14.322;2024-01-30T05:01:08;100811.53;;;-2.14;89.68
80747;BME280;75521;50.218;14.322;2024-01-30T05:03:34;100814.34;;;-2.23;89.74
80747;BME280;75521;50.218;14.322;2024-01-30T05:05:59;100811.50;;;-2.22;91.28
80747;BME280;75521;50.218;14.322;2024-01-30T05:08:25;100813.72;;;-2.17;92.93
80747;BME280;75521;50.218;14.322;2024-01-30T05:10:50;100818.56;;;-2.13;92.08
80747;BME280;75521;50.218;14.322;2024-01-30T05:13:15;100817.38;;;-2.18;91.72
80747;BME280;75521;50.218;14.322;2024-01-30T05:15:41;100819.38;;;-2.20;91.14
80747;BME280;75521;50.218;14.322;2024-01-30T05:18:06;100820.72;;;-2.16;91.49
80747;BME280;75521;50.218;14.322;2024-01-30T05:20:31;100810.66;;;-2.22;91.08
80747;BME280;75521;50.218;14.322;2024-01-30T05:22:57;100814.59;;;-2.43;92.26
80747;BME280;75521;50.218;14.322;2024-01-30T05:25:22;100809.06;;;-2.41;93.13
80747;BME280;75521;50.218;14.322;2024-01-30T05:27:48;100827.09;;;-2.25;93.28
80747;BME280;75521;50.218;14.322;2024-01-30T05:30:14;100823.66;;;-2.35;93.02
80747;BME280;75521;50.218;14.322;2024-01-30T05:32:39;100820.50;;;-2.31;92.78
80747;BME280;75521;50.218;14.322;2024-01-30T05:35:05;100824.97;;;-2.39;93.44
80747;BME280;75521;50.218;14.322;2024-01-30T05:37:30;100831.72;;;-2.35;93.16
80747;BME280;75521;50.218;14.322;2024-01-30T05:39:55;100831.94;;;-2.29;93.13
80747;BME280;75521;50.218;14.322;2024-01-30T05:42:21;100825.97;;;-2.07;93.62
80747;BME280;75521;50.218;14.322;2024-01-30T05:44:46;100804.97;;;-2.19;92.64
80747;BME280;75521;50.218;14.322;2024-01-30T05:47:11;100818.59;;;-2.05;92.64
80747;BME280;75521;50.218;14.322;2024-01-30T05:49:37;100794.69;;;-2.32;92.47
80747;BME280;75521;50.218;14.322;2024-01-30T05:52:04;100825.19;;;-2.33;93.76
80747;BME280;75521;50.218;14.322;2024-01-30T05:54:29;100814.47;;;-2.33;93.93
80747;BME280;75521;50.218;14.322;2024-01-30T05:56:54;100801.25;;;-2.26;92.57
80747;BME280;75521;50.218;14.322;2024-01-30T05:59:20;100806.47;;;-2.25;92.39
80747;BME280;75521;50.218;14.322;2024-01-30T06:01:46;100812.47;;;-2.31;91.14
80747;BME280;75521;50.218;14.322;2024-01-30T06:04:12;100827.78;;;-2.15;91.99
80747;BME280;75521;50.218;14.322;2024-01-30T06:06:37;100811.63;;;-2.31;92.13
80747;BME280;75521;50.218;14.322;2024-01-30T06:09:02;100815.34;;;-2.24;92.18
80747;BME280;75521;50.218;14.322;2024-01-30T06:11:28;100811.94;;;-2.34;91.74
80747;BME280;75521;50.218;14.322;2024-01-30T06:13:53;100813.19;;;-2.21;92.17
80747;BME280;75521;50.218;14.322;2024-01-30T06:16:18;100819.88;;;-2.17;93.30
80747;BME280;75521;50.218;14.322;2024-01-30T06:18:47;100822.03;;;-2.28;92.53
80747;BME280;75521;50.218;14.322;2024-01-30T06:21:13;100821.91;;;-2.19;93.28
80747;BME280;75521;50.218;14.322;2024-01-30T06:23:38;100818.72;;;-2.22;93.35
80747;BME280;75521;50.218;14.322;2024-01-30T06:26:04;100826.63;;;-2.47;93.43
80747;BME280;75521;50.218;14.322;2024-01-30T06:31:09;100811.38;;;-2.46;94.35
80747;BME280;75521;50.218;14.322;2024-01-30T06:33:35;100834.31;;;-2.18;94.32
80747;BME280;75521;50.218;14.322;2024-01-30T06:36:00;100809.63;;;-2.29;92.73
80747;BME280;75521;50.218;14.322;2024-01-30T06:38:26;100838.66;;;-2.17;92.18
80747;BME280;75521;50.218;14.322;2024-01-30T06:40:51;100833.84;;;-2.13;92.21
80747;BME280;75521;50.218;14.322;2024-01-30T06:43:16;100841.91;;;-2.13;91.53
80747;BME280;75521;50.218;14.322;2024-01-30T06:45:42;100835.47;;;-2.20;91.42
80747;BME280;75521;50.218;14.322;2024-01-30T06:48:08;100839.88;;;-2.11;93.05
80747;BME280;75521;50.218;14.322;2024-01-30T06:50:33;100825.16;;;-2.07;92.87
80747;BME280;75521;50.218;14.322;2024-01-30T06:52:59;100843.44;;;-2.03;92.64
80747;BME280;75521;50.218;14.322;2024-01-30T06:55:24;100816.53;;;-2.19;92.11
80747;BME280;75521;50.218;14.322;2024-01-30T06:57:49;100824.16;;;-2.06;92.38
80747;BME280;75521;50.218;14.322;2024-01-30T07:00:15;100843.13;;;-2.00;92.51
80747;BME280;75521;50.218;14.322;2024-01-30T07:02:41;100832.56;;;-1.93;91.72
80747;BME280;75521;50.218;14.322;2024-01-30T07:05:07;100833.03;;;-1.98;90.88
80747;BME280;75521;50.218;14.322;2024-01-30T07:07:32;100827.47;;;-2.12;92.19
80747;BME280;75521;50.218;14.322;2024-01-30T07:09:58;100844.59;;;-2.05;91.50
80747;BME280;75521;50.218;14.322;2024-01-30T07:12:23;100838.09;;;-1.95;91.92
80747;BME280;75521;50.218;14.322;2024-01-30T07:14:50;100829.81;;;-2.09;91.85
80747;BME280;75521;50.218;14.322;2024-01-30T07:17:16;100821.34;;;-2.30;93.25
80747;BME280;75521;50.218;14.322;2024-01-30T07:19:41;100851.13;;;-2.08;92.45
80747;BME280;75521;50.218;14.322;2024-01-30T07:22:07;100832.97;;;-2.22;93.15
80747;BME280;75521;50.218;14.322;2024-01-30T07:24:33;100840.06;;;-2.05;94.06
80747;BME280;75521;50.218;14.322;2024-01-30T07:26:58;100837.94;;;-1.93;93.38
80747;BME280;75521;50.218;14.322;2024-01-30T07:29:23;100846.34;;;-1.88;93.40
80747;BME280;75521;50.218;14.322;2024-01-30T07:31:49;100832.56;;;-1.93;93.08
80747;BME280;75521;50.218;14.322;2024-01-30T07:34:14;100858.78;;;-1.71;92.84
80747;BME280;75521;50.218;14.322;2024-01-30T07:36:40;100844.69;;;-1.81;91.91
80747;BME280;75521;50.218;14.322;2024-01-30T07:39:05;100853.78;;;-1.66;92.04
80747;BME280;75521;50.218;14.322;2024-01-30T07:41:30;100839.81;;;-1.77;92.66
80747;BME280;75521;50.218;14.322;2024-01-30T07:43:56;100834.78;;;-1.80;91.82
80747;BME280;75521;50.218;14.322;2024-01-30T07:46:21;100846.56;;;-1.65;91.56
80747;BME280;75521;50.218;14.322;2024-01-30T07:48:46;100853.66;;;-1.56;91.09
80747;BME280;75521;50.218;14.322;2024-01-30T07:51:12;100843.56;;;-1.54;90.63
80747;BME280;75521;50.218;14.322;2024-01-30T07:53:37;100857.81;;;-1.62;91.67
80747;BME280;75521;50.218;14.322;2024-01-30T07:56:02;100857.50;;;-1.59;92.06
80747;BME280;75521;50.218;14.322;2024-01-30T07:58:28;100857.00;;;-1.54;92.91
80747;BME280;75521;50.218;14.322;2024-01-30T08:00:53;100848.44;;;-1.58;92.93
80747;BME280;75521;50.218;14.322;2024-01-30T08:03:19;100844.56;;;-1.55;92.65
80747;BME280;75521;50.218;14.322;2024-01-30T08:05:44;100844.09;;;-1.51;92.71
80747;BME280;75521;50.218;14.322;2024-01-30T08:08:11;100851.81;;;-1.39;93.35
80747;BME280;75521;50.218;14.322;2024-01-30T08:10:36;100847.13;;;-1.46;92.70
80747;BME280;75521;50.218;14.322;2024-01-30T08:13:01;100852.34;;;-1.36;92.22
80747;BME280;75521;50.218;14.322;2024-01-30T08:15:27;100857.53;;;-1.42;90.70
80747;BME280;75521;50.218;14.322;2024-01-30T08:17:52;100861.56;;;-1.38;91.37
80747;BME280;75521;50.218;14.322;2024-01-30T08:20:23;100854.84;;;-1.42;90.70
80747;BME280;75521;50.218;14.322;2024-01-30T08:22:49;100843.63;;;-1.38;90.96
80747;BME280;75521;50.218;14.322;2024-01-30T08:25:14;100844.78;;;-1.49;90.09
80747;BME280;75521;50.218;14.322;2024-01-30T08:27:40;100838.69;;;-1.59;90.45
80747;BME280;75521;50.218;14.322;2024-01-30T08:30:06;100843.78;;;-1.39;91.84
80747;BME280;75521;50.218;14.322;2024-01-30T08:32:32;100849.00;;;-1.22;92.41
80747;BME280;75521;50.218;14.322;2024-01-30T08:34:58;100847.13;;;-1.21;91.93
80747;BME280;75521;50.218;14.322;2024-01-30T08:37:23;100838.25;;;-1.14;91.38
80747;BME280;75521;50.218;14.322;2024-01-30T08:39:49;100850.53;;;-1.03;90.94
80747;BME280;75521;50.218;14.322;2024-01-30T08:42:14;100834.06;;;-1.08;91.30
80747;BME280;75521;50.218;14.322;2024-01-30T08:44:39;100828.34;;;-1.05;90.76
80747;BME280;75521;50.218;14.322;2024-01-30T08:47:05;100836.75;;;-1.00;89.22
80747;BME280;75521;50.218;14.322;2024-01-30T08:49:31;100850.00;;;-0.90;90.02
80747;BME280;75521;50.218;14.322;2024-01-30T08:51:56;100852.53;;;-0.81;88.99
80747;BME280;75521;50.218;14.322;2024-01-30T08:54:23;100826.50;;;-0.88;87.47
80747;BME280;75521;50.218;14.322;2024-01-30T08:56:48;100851.50;;;-0.80;87.81
80747;BME280;75521;50.218;14.322;2024-01-30T08:59:14;100837.06;;;-0.87;86.26
80747;BME280;75521;50.218;14.322;2024-01-30T09:01:39;100827.66;;;-0.91;87.37
80747;BME280;75521;50.218;14.322;2024-01-30T09:04:04;100810.19;;;-0.95;88.56
80747;BME280;75521;50.218;14.322;2024-01-30T09:06:30;100808.34;;;-0.94;88.96
80747;BME280;75521;50.218;14.322;2024-01-30T09:08:55;100815.91;;;-0.74;87.00
80747;BME280;75521;50.218;14.322;2024-01-30T09:11:23;100818.25;;;-0.71;86.41
80747;BME280;75521;50.218;14.322;2024-01-30T09:13:48;100830.66;;;-0.62;86.26
80747;BME280;75521;50.218;14.322;2024-01-30T09:16:13;100814.91;;;-0.73;86.63
80747;BME280;75521;50.218;14.322;2024-01-30T09:18:41;100819.25;;;-0.72;86.24
80747;BME280;75521;50.218;14.322;2024-01-30T09:21:06;100817.91;;;-0.76;86.32
80747;BME280;75521;50.218;14.322;2024-01-30T09:23:31;100835.56;;;-0.73;86.72
80747;BME280;75521;50.218;14.322;2024-01-30T09:25:57;100854.38;;;-0.57;86.31
80747;BME280;75521;50.218;14.322;2024-01-30T09:28:23;100850.13;;;-0.43;85.37
80747;BME280;75521;50.218;14.322;2024-01-30T09:30:48;100855.50;;;-0.35;84.00
80747;BME280;75521;50.218;14.322;2024-01-30T09:33:13;100834.69;;;-0.50;83.51
80747;BME280;75521;50.218;14.322;2024-01-30T09:35:39;100825.94;;;-0.60;84.22
80747;BME280;75521;50.218;14.322;2024-01-30T09:38:04;100840.56;;;-0.46;85.08
80747;BME280;75521;50.218;14.322;2024-01-30T09:40:30;100826.06;;;-0.45;86.19
80747;BME280;75521;50.218;14.322;2024-01-30T09:42:55;100834.97;;;-0.36;85.79
80747;BME280;75521;50.218;14.322;2024-01-30T09:45:24;100819.34;;;-0.41;85.93
80747;BME280;75521;50.218;14.322;2024-01-30T09:47:50;100835.31;;;-0.31;85.29
80747;BME280;75521;50.218;14.322;2024-01-30T09:50:16;100829.13;;;-0.48;86.80
80747;BME280;75521;50.218;14.322;2024-01-30T09:52:44;100824.44;;;-0.54;86.71
80747;BME280;75521;50.218;14.322;2024-01-30T09:55:09;100833.47;;;-0.31;86.53
80747;BME280;75521;50.218;14.322;2024-01-30T09:57:35;100848.16;;;-0.11;86.38
80747;BME280;75521;50.218;14.322;2024-01-30T10:00:02;100850.31;;;0.02;85.60
80747;BME280;75521;50.218;14.322;2024-01-30T10:02:27;100834.00;;;0.04;85.07
80747;BME280;75521;50.218;14.322;2024-01-30T10:04:53;100844.53;;;0.13;84.10
80747;BME280;75521;50.218;14.322;2024-01-30T10:07:18;100849.22;;;0.19;83.95
80747;BME280;75521;50.218;14.322;2024-01-30T10:09:44;100840.25;;;0.27;84.11
80747;BME280;75521;50.218;14.322;2024-01-30T10:12:10;100824.66;;;0.22;84.55
80747;BME280;75521;50.218;14.322;2024-01-30T10:14:39;100831.88;;;0.22;84.77
80747;BME280;75521;50.218;14.322;2024-01-30T10:17:04;100825.06;;;0.11;85.54
80747;BME280;75521;50.218;14.322;2024-01-30T10:19:31;100833.03;;;0.27;85.46
80747;BME280;75521;50.218;14.322;2024-01-30T10:21:56;100829.63;;;0.33;85.11
80747;BME280;75521;50.218;14.322;2024-01-30T10:24:25;100833.16;;;0.34;83.77
80747;BME280;75521;50.218;14.322;2024-01-30T10:26:50;100824.41;;;0.32;84.17
80747;BME280;75521;50.218;14.322;2024-01-30T10:29:16;100820.53;;;0.34;84.24
80747;BME280;75521;50.218;14.322;2024-01-30T10:31:42;100822.72;;;0.31;84.47
80747;BME280;75521;50.218;14.322;2024-01-30T10:34:07;100814.56;;;0.16;84.39
80747;BME280;75521;50.218;14.322;2024-01-30T10:36:39;100800.75;;;0.19;83.11
80747;BME280;75521;50.218;14.322;2024-01-30T10:39:06;100811.63;;;0.34;83.37
80747;BME280;75521;50.218;14.322;2024-01-30T10:41:44;100800.72;;;0.27;82.79
80747;BME280;75521;50.218;14.322;2024-01-30T10:44:18;100785.63;;;0.18;84.25
80747;BME280;75521;50.218;14.322;2024-01-30T10:46:50;100806.03;;;0.35;83.16
80747;BME280;75521;50.218;14.322;2024-01-30T10:49:21;100807.72;;;0.36;84.20
80747;BME280;75521;50.218;14.322;2024-01-30T10:51:47;100806.97;;;0.51;84.52
80747;BME280;75521;50.218;14.322;2024-01-30T10:54:15;100787.31;;;0.42;84.70
80747;BME280;75521;50.218;14.322;2024-01-30T10:56:42;100797.31;;;0.33;84.76
80747;BME280;75521;50.218;14.322;2024-01-30T10:59:08;100791.38;;;0.15;85.22
80747;BME280;75521;50.218;14.322;2024-01-30T11:01:35;100794.47;;;0.27;84.82
80747;BME280;75521;50.218;14.322;2024-01-30T11:04:00;100802.47;;;0.43;84.23
80747;BME280;75521;50.218;14.322;2024-01-30T11:06:26;100793.19;;;0.23;85.45
80747;BME280;75521;50.218;14.322;2024-01-30T11:09:04;100787.69;;;0.39;84.13
80747;BME280;75521;50.218;14.322;2024-01-30T11:11:57;100799.06;;;0.49;83.99
80747;BME280;75521;50.218;14.322;2024-01-30T11:14:26;100794.31;;;0.28;84.73
80747;BME280;75521;50.218;14.322;2024-01-30T11:16:52;100783.09;;;0.17;84.91
80747;BME280;75521;50.218;14.322;2024-01-30T11:19:25;100782.16;;;0.32;84.03
80747;BME280;75521;50.218;14.322;2024-01-30T11:21:52;100784.50;;;0.35;84.21
80747;BME280;75521;50.218;14.322;2024-01-30T11:24:20;100788.84;;;0.44;85.18
80747;BME280;75521;50.218;14.322;2024-01-30T11:26:48;100766.38;;;0.29;86.08
80747;BME280;75521;50.218;14.322;2024-01-30T11:29:14;100767.81;;;0.40;85.21
80747;BME280;75521;50.218;14.322;2024-01-30T11:31:51;100785.25;;;0.52;85.10
80747;BME280;75521;50.218;14.322;2024-01-30T11:34:18;100780.56;;;0.46;85.06
80747;BME280;75521;50.218;14.322;2024-01-30T11:36:44;100768.88;;;0.54;84.89
80747;BME280;75521;50.218;14.322;2024-01-30T11:39:17;100776.06;;;0.61;84.40
80747;BME280;75521;50.218;14.322;2024-01-30T11:41:43;100770.63;;;0.69;84.09
80747;BME280;75521;50.218;14.322;2024-01-30T11:44:10;100756.56;;;0.59;82.90
80747;BME280;75521;50.218;14.322;2024-01-30T11:46:36;100774.34;;;0.68;83.45
80747;BME280;75521;50.218;14.322;2024-01-30T11:49:01;100765.78;;;0.65;82.01
80747;BME280;75521;50.218;14.322;2024-01-30T11:51:27;100720.53;;;0.37;82.49
80747;BME280;75521;50.218;14.322;2024-01-30T11:53:53;100750.75;;;0.47;81.48
80747;BME280;75521;50.218;14.322;2024-01-30T11:56:18;100757.81;;;0.48;82.54
80747;BME280;75521;50.218;14.322;2024-01-30T11:58:44;100742.69;;;0.47;82.64
80747;BME280;75521;50.218;14.322;2024-01-30T12:01:10;100751.41;;;0.49;84.57
80747;BME280;75521;50.218;14.322;2024-01-30T12:03:36;100748.94;;;0.63;85.03
80747;BME280;75521;50.218;14.322;2024-01-30T12:06:02;100745.53;;;0.69;84.70
80747;BME280;75521;50.218;14.322;2024-01-30T12:08:28;100732.41;;;0.66;84.92
80747;BME280;75521;50.218;14.322;2024-01-30T12:10:57;100715.31;;;0.59;84.71
80747;BME280;75521;50.218;14.322;2024-01-30T12:13:24;100720.56;;;0.75;84.21
80747;BME280;75521;50.218;14.322;2024-01-30T12:15:50;100734.97;;;0.82;83.52
80747;BME280;75521;50.218;14.322;2024-01-30T12:18:18;100727.91;;;0.81;85.02
80747;BME280;75521;50.218;14.322;2024-01-30T12:20:44;100716.75;;;0.84;82.77
80747;BME280;75521;50.218;14.322;2024-01-30T12:23:11;100711.09;;;0.79;83.45
80747;BME280;75521;50.218;14.322;2024-01-30T12:25:37;100708.31;;;0.72;82.33
80747;BME280;75521;50.218;14.322;2024-01-30T12:28:03;100709.31;;;0.71;82.44
80747;BME280;75521;50.218;14.322;2024-01-30T12:30:29;100714.22;;;0.68;82.34
80747;BME280;75521;50.218;14.322;2024-01-30T12:32:55;100719.41;;;0.69;82.57
80747;BME280;75521;50.218;14.322;2024-01-30T12:35:20;100724.94;;;0.76;82.89
80747;BME280;75521;50.218;14.322;2024-01-30T12:37:47;100730.56;;;0.66;82.06
80747;BME280;75521;50.218;14.322;2024-01-30T12:40:14;100711.13;;;0.56;82.42